Terminal Aerodrome Forecast
Issued by NWS Albany, NY

Home | Current Version | Previous Version | Text Only | Print | Product List | Glossary On
Versions: 1 2 3 4 5 6 7 8 9 10 11 12 13
000
FTUS41 KALY 222325
TAFGFL
TAF
KGFL 222325Z 2300/2324 19003KT P6SM VCSH BKN010 OVC015
     FM230200 22003KT P6SM SCT015 BKN040
     FM230500 24003KT 2SM BR VV009
     FM231100 14005KT P6SM SCT250
      AMD NOT SKED=

USA.gov is the U.S. government's official web portal to all federal, state and local government web resources and services.